createdAt,value
2023-05-07T00:02:08.900Z,8.70
2023-05-07T00:04:40.376Z,8.71
2023-05-07T00:07:11.854Z,8.73
2023-05-07T00:09:43.340Z,8.73
2023-05-07T00:12:14.891Z,8.78
2023-05-07T00:14:46.679Z,8.85
2023-05-07T00:17:18.113Z,8.77
2023-05-07T00:19:49.571Z,8.83
2023-05-07T00:22:21.043Z,8.84
2023-05-07T00:24:52.946Z,8.88
2023-05-07T00:27:24.689Z,8.87
2023-05-07T00:29:56.500Z,8.81
2023-05-07T00:32:28.332Z,8.87
2023-05-07T00:34:59.786Z,8.81
2023-05-07T00:37:31.530Z,8.88
2023-05-07T00:40:03.016Z,8.85
2023-05-07T00:42:34.481Z,8.82
2023-05-07T00:45:05.934Z,8.85
2023-05-07T00:47:37.470Z,8.91
2023-05-07T00:50:09.335Z,8.87
2023-05-07T00:52:41.167Z,8.81
2023-05-07T00:55:12.710Z,8.77
2023-05-07T00:57:44.596Z,8.79
2023-05-07T01:00:16.072Z,8.88
2023-05-07T01:02:47.570Z,8.76
2023-05-07T01:05:19.757Z,8.86
2023-05-07T01:07:51.756Z,8.85
2023-05-07T01:10:23.253Z,8.81
2023-05-07T01:12:54.767Z,8.81
2023-05-07T01:15:26.633Z,8.78
2023-05-07T01:17:58.138Z,8.81
2023-05-07T01:20:29.950Z,8.78
2023-05-07T01:23:01.403Z,8.85
2023-05-07T01:25:32.901Z,8.87
2023-05-07T01:28:04.704Z,8.85
2023-05-07T01:30:36.178Z,8.83
2023-05-07T01:33:07.820Z,8.81
2023-05-07T01:35:39.296Z,8.86
2023-05-07T01:38:11.256Z,8.83
2023-05-07T01:40:42.690Z,8.87
2023-05-07T01:43:14.425Z,8.77
2023-05-07T01:45:45.857Z,8.86
2023-05-07T01:48:17.593Z,8.74
2023-05-07T01:50:49.113Z,8.75
2023-05-07T01:53:21.072Z,8.76
2023-05-07T01:55:52.527Z,8.85
2023-05-07T01:58:24.400Z,8.86
2023-05-07T02:00:56.173Z,8.85
2023-05-07T02:03:27.811Z,8.73
2023-05-07T02:06:00.326Z,8.70
2023-05-07T02:08:31.830Z,8.73
2023-05-07T02:11:03.661Z,8.68
2023-05-07T02:13:35.182Z,8.65
2023-05-07T02:16:07.001Z,8.68
2023-05-07T02:18:38.583Z,8.69
2023-05-07T02:21:10.233Z,8.64
2023-05-07T02:23:41.669Z,8.65
2023-05-07T02:26:13.396Z,8.65
2023-05-07T02:28:45.173Z,8.65
2023-05-07T02:31:16.651Z,8.69
2023-05-07T02:33:48.487Z,8.70
2023-05-07T02:36:19.950Z,8.71
2023-05-07T02:38:51.709Z,8.66
2023-05-07T02:41:23.178Z,8.72
2023-05-07T02:43:56.423Z,8.73
2023-05-07T02:46:27.939Z,8.65
2023-05-07T02:48:59.817Z,8.64
2023-05-07T02:51:31.288Z,8.64
2023-05-07T02:54:03.117Z,8.66
2023-05-07T02:56:34.652Z,8.67
2023-05-07T02:59:06.408Z,8.60
2023-05-07T03:01:37.946Z,8.68
2023-05-07T03:04:09.467Z,8.65
2023-05-07T03:06:40.960Z,8.55
2023-05-07T03:09:12.408Z,8.59
2023-05-07T03:11:44.184Z,8.57
2023-05-07T03:14:15.712Z,8.58
2023-05-07T03:16:47.451Z,8.68
2023-05-07T03:19:18.930Z,8.64
2023-05-07T03:21:50.726Z,8.64
2023-05-07T03:24:22.216Z,8.70
2023-05-07T03:26:54.041Z,8.75
2023-05-07T03:29:25.856Z,8.75
2023-05-07T03:31:57.345Z,8.76
2023-05-07T03:34:29.423Z,8.73
2023-05-07T03:37:00.881Z,8.75
2023-05-07T03:39:32.723Z,8.70
2023-05-07T03:42:04.191Z,8.71
2023-05-07T03:44:35.661Z,8.67
2023-05-07T03:47:07.107Z,8.72
2023-05-07T03:49:38.596Z,8.61
2023-05-07T03:52:11.022Z,8.70
2023-05-07T03:54:42.693Z,8.69
2023-05-07T03:57:14.666Z,8.65
2023-05-07T03:59:46.163Z,8.69
2023-05-07T04:02:17.903Z,8.72
2023-05-07T04:04:49.417Z,8.72
2023-05-07T04:07:21.260Z,8.66
2023-05-07T04:09:52.772Z,8.65
2023-05-07T04:12:24.446Z,8.71
2023-05-07T04:14:55.926Z,8.62
2023-05-07T04:17:27.810Z,8.58
2023-05-07T04:19:59.290Z,8.67
2023-05-07T04:22:31.046Z,8.66
2023-05-07T04:25:02.827Z,8.62
2023-05-07T04:27:34.297Z,8.73
2023-05-07T04:30:06.073Z,8.72
2023-05-07T04:32:37.543Z,8.77
2023-05-07T04:35:09.661Z,8.80
2023-05-07T04:37:41.131Z,8.87
2023-05-07T04:40:12.785Z,8.88
2023-05-07T04:42:44.458Z,8.93
2023-05-07T04:45:16.220Z,8.95
2023-05-07T04:47:47.705Z,8.93
2023-05-07T04:50:19.536Z,8.87
2023-05-07T04:52:50.974Z,9.04
2023-05-07T04:55:22.724Z,9.13
2023-05-07T04:57:54.602Z,9.05
2023-05-07T05:00:26.214Z,9.18
2023-05-07T05:02:58.017Z,9.19
2023-05-07T05:05:29.568Z,9.20
2023-05-07T05:08:01.536Z,9.18
2023-05-07T05:10:33.083Z,9.19
2023-05-07T05:13:04.866Z,9.12
2023-05-07T05:15:36.350Z,9.18
2023-05-07T05:18:08.140Z,9.14
2023-05-07T05:20:39.623Z,9.28
2023-05-07T05:23:11.396Z,9.34
2023-05-07T05:25:42.835Z,9.32
2023-05-07T05:28:14.747Z,9.34
2023-05-07T05:30:46.253Z,9.45
2023-05-07T05:33:17.707Z,9.47
2023-05-07T05:35:49.520Z,9.58
2023-05-07T05:38:21.053Z,9.55
2023-05-07T05:40:54.777Z,9.76
2023-05-07T05:43:27.535Z,9.95
2023-05-07T05:45:59.400Z,10.19
2023-05-07T05:48:30.902Z,10.46
2023-05-07T05:51:02.404Z,10.40
2023-05-07T05:53:33.960Z,10.58
2023-05-07T05:56:05.774Z,10.68
2023-05-07T05:58:37.287Z,10.64
2023-05-07T06:01:09.262Z,10.87
2023-05-07T06:03:40.741Z,11.25
2023-05-07T06:06:12.223Z,11.16
2023-05-07T06:08:44.045Z,11.49
2023-05-07T06:11:15.548Z,11.26
2023-05-07T06:13:47.448Z,11.26
2023-05-07T06:16:18.903Z,11.64
2023-05-07T06:18:50.758Z,11.54
2023-05-07T06:21:22.265Z,11.64
2023-05-07T06:23:54.055Z,11.88
2023-05-07T06:26:25.868Z,11.53
2023-05-07T06:28:57.651Z,11.14
2023-05-07T06:31:29.632Z,11.42
2023-05-07T06:34:01.153Z,11.17
2023-05-07T06:36:32.651Z,11.40
2023-05-07T06:39:04.115Z,11.51
2023-05-07T06:41:35.602Z,11.81
2023-05-07T06:44:07.086Z,12.03
2023-05-07T06:46:38.681Z,11.79
2023-05-07T06:49:10.169Z,11.81
2023-05-07T06:51:41.942Z,11.63
2023-05-07T06:54:13.363Z,11.85
2023-05-07T06:56:45.123Z,11.54
2023-05-07T06:59:16.929Z,11.52
2023-05-07T07:01:48.773Z,11.63
2023-05-07T07:04:20.359Z,11.78
2023-05-07T07:06:51.886Z,12.16
2023-05-07T07:09:24.200Z,12.13
2023-05-07T07:11:55.739Z,11.95
2023-05-07T07:14:27.319Z,12.13
2023-05-07T07:16:58.808Z,11.97
2023-05-07T07:19:30.271Z,12.08
2023-05-07T07:22:01.777Z,12.26
2023-05-07T07:24:33.464Z,12.46
2023-05-07T07:27:04.926Z,12.97
2023-05-07T07:29:36.380Z,12.81
2023-05-07T07:32:08.207Z,12.73
2023-05-07T07:34:39.677Z,12.86
2023-05-07T07:37:11.498Z,13.13
2023-05-07T07:39:42.960Z,13.10
2023-05-07T07:42:14.729Z,13.29
2023-05-07T07:44:46.166Z,13.95
2023-05-07T07:47:17.634Z,14.05
2023-05-07T07:49:49.066Z,14.86
2023-05-07T07:52:20.795Z,15.07
2023-05-07T07:54:52.577Z,15.19
2023-05-07T07:57:24.029Z,15.00
2023-05-07T07:59:56.006Z,15.68
2023-05-07T08:02:27.582Z,15.40
2023-05-07T08:04:59.628Z,14.63
2023-05-07T08:07:31.078Z,14.94
2023-05-07T08:10:02.846Z,15.75
2023-05-07T08:12:34.319Z,16.61
2023-05-07T08:15:06.197Z,17.03
2023-05-07T08:17:37.837Z,17.47
2023-05-07T08:20:09.945Z,17.10
2023-05-07T08:22:41.578Z,16.67
2023-05-07T08:25:13.499Z,16.49
2023-05-07T08:27:45.458Z,16.76
2023-05-07T08:30:16.942Z,16.77
2023-05-07T08:32:48.679Z,16.98
2023-05-07T08:35:20.174Z,17.04
2023-05-07T08:37:51.827Z,16.82
2023-05-07T08:40:23.267Z,16.26
2023-05-07T08:42:55.079Z,17.20
2023-05-07T08:45:26.613Z,17.17
2023-05-07T08:47:58.132Z,17.32
2023-05-07T08:50:29.607Z,16.39
2023-05-07T08:53:01.418Z,16.66
2023-05-07T08:55:33.322Z,16.11
2023-05-07T08:58:04.941Z,15.82
2023-05-07T09:00:36.431Z,15.70
2023-05-07T09:03:08.013Z,15.99
2023-05-07T09:05:39.512Z,15.66
2023-05-07T09:08:10.992Z,15.65
2023-05-07T09:10:42.831Z,15.55
2023-05-07T09:13:14.393Z,15.70
2023-05-07T09:15:46.165Z,15.53
2023-05-07T09:18:17.677Z,15.91
2023-05-07T09:20:49.145Z,15.75
2023-05-07T09:23:20.592Z,16.42
2023-05-07T09:25:52.251Z,15.97
2023-05-07T09:28:23.740Z,16.58
2023-05-07T09:30:55.184Z,16.47
2023-05-07T09:33:27.232Z,16.31
2023-05-07T09:35:58.738Z,16.15
2023-05-07T09:38:30.562Z,16.47
2023-05-07T09:41:02.155Z,16.49
2023-05-07T09:43:33.648Z,16.33
2023-05-07T09:46:05.118Z,16.36
2023-05-07T09:48:36.793Z,16.39
2023-05-07T09:51:08.282Z,16.40
2023-05-07T09:53:39.775Z,16.46
2023-05-07T09:56:11.673Z,16.37
2023-05-07T09:58:43.137Z,16.17
2023-05-07T10:01:14.963Z,16.50
2023-05-07T10:03:46.601Z,15.60
2023-05-07T10:06:18.139Z,16.39
2023-05-07T10:08:49.608Z,17.55
2023-05-07T10:11:21.102Z,17.58
2023-05-07T10:13:52.562Z,17.62
2023-05-07T10:16:24.215Z,17.84
2023-05-07T10:18:55.787Z,18.91
2023-05-07T10:21:27.454Z,18.33
2023-05-07T10:23:58.910Z,19.50
2023-05-07T10:26:30.717Z,18.90
2023-05-07T10:29:02.698Z,19.25
2023-05-07T10:31:34.254Z,18.87
2023-05-07T10:34:06.212Z,18.23
2023-05-07T10:36:38.572Z,17.80
2023-05-07T10:39:10.498Z,18.10
2023-05-07T10:41:41.968Z,18.62
2023-05-07T10:44:13.797Z,19.30
2023-05-07T10:46:45.384Z,18.23
2023-05-07T10:49:17.253Z,17.33
2023-05-07T10:51:48.715Z,18.21
2023-05-07T10:54:20.540Z,18.60
2023-05-07T10:56:52.368Z,18.71
2023-05-07T10:59:24.267Z,18.17
2023-05-07T11:01:56.331Z,17.26
2023-05-07T11:04:27.948Z,18.16
2023-05-07T11:06:59.811Z,18.86
2023-05-07T11:09:31.264Z,18.43
2023-05-07T11:12:03.287Z,17.35
2023-05-07T11:14:34.728Z,18.08
2023-05-07T11:17:06.453Z,18.94
2023-05-07T11:19:37.951Z,18.68
2023-05-07T11:22:09.935Z,17.58
2023-05-07T11:24:41.433Z,17.64
2023-05-07T11:27:13.155Z,17.64
2023-05-07T11:29:44.967Z,18.52
2023-05-07T11:32:16.448Z,18.91
2023-05-07T11:34:47.919Z,19.11
2023-05-07T11:37:19.414Z,19.42
2023-05-07T11:39:51.247Z,19.50
2023-05-07T11:42:22.715Z,20.24
2023-05-07T11:44:54.364Z,20.20
2023-05-07T11:47:25.922Z,19.86
2023-05-07T11:49:57.575Z,20.95
2023-05-07T11:52:30.948Z,20.66
2023-05-07T11:55:02.693Z,20.73
2023-05-07T11:57:34.816Z,20.38
2023-05-07T12:00:06.762Z,20.77
2023-05-07T12:02:38.341Z,20.84
2023-05-07T12:05:10.256Z,21.17
2023-05-07T12:07:42.353Z,21.37
2023-05-07T12:10:13.819Z,21.53
2023-05-07T12:12:45.369Z,20.76
2023-05-07T12:15:16.838Z,20.54
2023-05-07T12:17:48.419Z,21.25
2023-05-07T12:20:19.918Z,20.70
2023-05-07T12:22:51.464Z,20.87
2023-05-07T12:25:23.379Z,20.20
2023-05-07T12:27:55.254Z,19.06
2023-05-07T12:30:26.711Z,18.76
2023-05-07T12:33:07.749Z,19.10
2023-05-07T12:35:39.321Z,19.49
2023-05-07T12:38:10.792Z,19.98
2023-05-07T12:40:42.782Z,19.16
2023-05-07T12:43:14.253Z,19.87
2023-05-07T12:45:45.992Z,20.27
2023-05-07T12:48:17.461Z,20.93
2023-05-07T12:50:48.927Z,19.76
2023-05-07T12:53:20.763Z,19.53
2023-05-07T12:55:52.588Z,19.80
2023-05-07T12:58:24.410Z,19.71
2023-05-07T13:00:55.976Z,20.34
2023-05-07T13:03:27.736Z,20.97
2023-05-07T13:05:59.258Z,20.90
2023-05-07T13:08:32.264Z,20.74
2023-05-07T13:11:03.740Z,20.71
2023-05-07T13:13:35.288Z,20.89
2023-05-07T13:16:06.913Z,20.76
2023-05-07T13:18:38.522Z,21.34
2023-05-07T13:21:13.025Z,21.96
2023-05-07T13:23:44.806Z,22.80
2023-05-07T13:26:26.401Z,22.27
2023-05-07T13:28:59.052Z,21.38
2023-05-07T13:31:30.861Z,21.78
2023-05-07T13:34:02.466Z,21.36
2023-05-07T13:36:33.977Z,20.85
2023-05-07T13:39:05.476Z,21.12
2023-05-07T13:41:36.949Z,20.46
2023-05-07T13:44:08.420Z,19.67
2023-05-07T13:46:39.911Z,19.82
2023-05-07T13:49:11.356Z,21.10
2023-05-07T13:51:43.137Z,21.96
2023-05-07T13:54:14.982Z,21.55
2023-05-07T13:56:46.455Z,21.18
2023-05-07T13:59:18.423Z,21.41
2023-05-07T14:01:49.936Z,21.68
2023-05-07T14:04:21.732Z,20.89
2023-05-07T14:06:53.210Z,21.96
2023-05-07T14:09:24.913Z,20.83
2023-05-07T14:11:56.390Z,21.48
2023-05-07T14:14:28.179Z,22.52
2023-05-07T14:16:59.684Z,22.65
2023-05-07T14:19:31.537Z,22.59
2023-05-07T14:22:03.004Z,22.34
2023-05-07T14:24:38.685Z,22.40
2023-05-07T14:27:10.895Z,23.15
2023-05-07T14:29:42.409Z,23.10
2023-05-07T14:32:14.263Z,22.90
2023-05-07T14:34:45.716Z,22.38
2023-05-07T14:37:17.468Z,23.49
2023-05-07T14:39:50.815Z,22.77
2023-05-07T14:42:22.938Z,23.85
2023-05-07T14:44:54.420Z,24.90
2023-05-07T14:47:25.928Z,23.26
2023-05-07T14:49:57.421Z,23.78
2023-05-07T14:52:29.238Z,23.87
2023-05-07T14:55:00.705Z,22.10
2023-05-07T14:57:32.805Z,20.86
2023-05-07T15:00:04.775Z,21.68
2023-05-07T15:02:36.331Z,20.68
2023-05-07T15:05:08.260Z,19.98
2023-05-07T15:07:39.724Z,19.30
2023-05-07T15:10:11.397Z,19.45
2023-05-07T15:12:42.857Z,19.88
2023-05-07T15:15:14.884Z,20.37
2023-05-07T15:17:46.366Z,18.86
2023-05-07T15:20:18.168Z,18.08
2023-05-07T15:22:49.936Z,17.54
2023-05-07T15:25:21.377Z,18.59
2023-05-07T15:27:53.164Z,18.02
2023-05-07T15:30:24.635Z,17.74
2023-05-07T15:32:56.182Z,17.25
2023-05-07T15:35:27.642Z,18.83
2023-05-07T15:37:59.120Z,19.22
2023-05-07T15:40:30.568Z,20.15
2023-05-07T15:43:02.049Z,19.17
2023-05-07T15:45:33.585Z,18.46
2023-05-07T15:48:05.396Z,19.24
2023-05-07T15:50:36.906Z,19.14
2023-05-07T15:53:08.588Z,18.14
2023-05-07T15:55:40.067Z,18.38
2023-05-07T15:58:11.577Z,19.32
2023-05-07T16:00:43.033Z,18.58
2023-05-07T16:03:14.515Z,18.55
2023-05-07T16:05:46.065Z,18.67
2023-05-07T16:08:17.523Z,18.57
2023-05-07T16:10:48.995Z,18.54
2023-05-07T16:13:20.538Z,18.11
2023-05-07T16:15:52.542Z,17.41
2023-05-07T16:18:24.338Z,16.96
2023-05-07T16:20:55.852Z,16.75
2023-05-07T16:23:27.499Z,16.40
2023-05-07T16:25:58.965Z,15.91
2023-05-07T16:28:30.797Z,15.78
2023-05-07T16:31:02.280Z,15.73
2023-05-07T16:33:33.747Z,15.71
2023-05-07T16:36:05.188Z,15.63
2023-05-07T16:38:36.660Z,15.46
2023-05-07T16:41:08.098Z,15.77
2023-05-07T16:43:39.570Z,15.80
2023-05-07T16:46:11.073Z,15.28
2023-05-07T16:48:42.562Z,15.43
2023-05-07T16:51:14.302Z,15.62
2023-05-07T16:53:46.219Z,15.49
2023-05-07T16:56:17.987Z,15.46
2023-05-07T16:58:49.492Z,15.40
2023-05-07T17:01:21.450Z,15.31
2023-05-07T17:03:53.144Z,15.04
2023-05-07T17:06:25.211Z,14.89
2023-05-07T17:08:56.689Z,14.67
2023-05-07T17:11:28.499Z,14.77
2023-05-07T17:13:59.943Z,14.84
2023-05-07T17:16:31.954Z,14.88
2023-05-07T17:19:03.728Z,15.20
2023-05-07T17:21:35.212Z,15.32
2023-05-07T17:24:06.959Z,15.10
2023-05-07T17:26:38.428Z,15.15
2023-05-07T17:29:10.210Z,14.84
2023-05-07T17:31:41.710Z,14.78
2023-05-07T17:34:13.536Z,14.93
2023-05-07T17:36:44.988Z,14.85
2023-05-07T17:39:16.758Z,14.74
2023-05-07T17:41:48.217Z,14.78
2023-05-07T17:44:20.017Z,14.69
2023-05-07T17:46:51.774Z,14.58
2023-05-07T17:49:23.567Z,14.45
2023-05-07T17:51:55.975Z,14.25
2023-05-07T17:54:27.620Z,14.31
2023-05-07T17:56:59.077Z,14.23
2023-05-07T17:59:30.603Z,13.09
2023-05-07T18:02:02.097Z,14.21
2023-05-07T18:04:33.550Z,13.97
2023-05-07T18:07:05.027Z,13.82
2023-05-07T18:09:36.476Z,13.62
2023-05-07T18:12:08.231Z,13.66
2023-05-07T18:14:39.735Z,13.68
2023-05-07T18:17:11.386Z,13.54
2023-05-07T18:19:43.243Z,13.48
2023-05-07T18:22:14.710Z,13.49
2023-05-07T18:24:46.189Z,13.42
2023-05-07T18:27:17.712Z,13.26
2023-05-07T18:29:49.550Z,13.26
2023-05-07T18:32:21.125Z,13.32
2023-05-07T18:34:52.682Z,13.22
2023-05-07T18:37:25.414Z,13.00
2023-05-07T18:39:58.345Z,12.99
2023-05-07T18:42:30.622Z,13.00
2023-05-07T18:45:02.181Z,12.96
2023-05-07T18:47:33.656Z,12.91
2023-05-07T18:50:06.254Z,12.89
2023-05-07T18:52:39.579Z,12.82
2023-05-07T18:55:11.056Z,12.77
2023-05-07T18:57:42.510Z,12.76
2023-05-07T19:00:14.311Z,12.83
2023-05-07T19:02:46.277Z,12.83
2023-05-07T19:05:17.753Z,12.83
2023-05-07T19:07:49.224Z,12.82
2023-05-07T19:10:21.110Z,12.78
2023-05-07T19:12:52.890Z,12.80
2023-05-07T19:15:24.657Z,12.81
2023-05-07T19:17:56.174Z,12.90
2023-05-07T19:20:27.858Z,12.89
2023-05-07T19:22:59.335Z,12.92
2023-05-07T19:25:31.136Z,12.90
2023-05-07T19:28:02.588Z,12.90
2023-05-07T19:30:34.056Z,12.97
2023-05-07T19:33:05.685Z,12.85
2023-05-07T19:35:37.220Z,12.80
2023-05-07T19:38:08.684Z,12.61
2023-05-07T19:40:40.161Z,12.58
2023-05-07T19:43:11.995Z,12.38
2023-05-07T19:45:43.526Z,12.25
2023-05-07T19:48:15.090Z,12.15
2023-05-07T19:50:46.546Z,12.00
2023-05-07T19:53:18.450Z,11.85
2023-05-07T19:55:49.912Z,11.73
2023-05-07T19:58:21.559Z,11.60
2023-05-07T20:00:53.109Z,11.56
2023-05-07T20:03:25.013Z,11.48
2023-05-07T20:05:56.525Z,11.39
2023-05-07T20:08:28.168Z,11.31
2023-05-07T20:10:59.662Z,11.22
2023-05-07T20:13:31.299Z,11.14
2023-05-07T20:16:02.966Z,11.07
2023-05-07T20:18:34.466Z,10.93
2023-05-07T20:21:06.147Z,10.81
2023-05-07T20:23:37.633Z,10.80
2023-05-07T20:26:09.260Z,10.80
2023-05-07T20:28:40.726Z,10.73
2023-05-07T20:31:12.635Z,10.64
2023-05-07T20:33:44.148Z,10.54
2023-05-07T20:36:15.928Z,10.45
2023-05-07T20:38:47.379Z,10.37
2023-05-07T20:41:19.081Z,10.39
2023-05-07T20:43:50.967Z,10.32
2023-05-07T20:46:23.285Z,10.26
2023-05-07T20:48:55.394Z,10.22
2023-05-07T20:51:26.861Z,10.20
2023-05-07T20:53:58.585Z,10.10
2023-05-07T20:56:30.050Z,10.08
2023-05-07T20:59:01.853Z,10.01
2023-05-07T21:01:33.364Z,9.99
2023-05-07T21:04:05.217Z,9.95
2023-05-07T21:06:36.697Z,9.86
2023-05-07T21:09:08.170Z,9.87
2023-05-07T21:11:39.634Z,9.81
2023-05-07T21:14:11.422Z,9.75
2023-05-07T21:16:43.348Z,9.69
2023-05-07T21:19:14.867Z,9.65
2023-05-07T21:21:46.721Z,9.58
2023-05-07T21:24:18.171Z,9.55
2023-05-07T21:26:50.052Z,9.55
2023-05-07T21:29:21.527Z,9.47
2023-05-07T21:31:53.011Z,9.43
2023-05-07T21:34:24.457Z,9.42
2023-05-07T21:36:56.232Z,9.36
2023-05-07T21:39:27.701Z,9.34
2023-05-07T21:41:59.525Z,9.27
2023-05-07T21:44:31.361Z,9.25
2023-05-07T21:47:02.807Z,9.18
2023-05-07T21:49:34.353Z,9.17
2023-05-07T21:52:05.796Z,9.15
2023-05-07T21:54:37.285Z,9.12
2023-05-07T21:57:08.728Z,9.08
2023-05-07T21:59:40.198Z,9.04
2023-05-07T22:02:11.646Z,9.04
2023-05-07T22:04:43.433Z,8.98
2023-05-07T22:07:14.881Z,8.92
2023-05-07T22:09:46.638Z,8.87
2023-05-07T22:12:18.133Z,8.88
2023-05-07T22:14:49.999Z,8.85
2023-05-07T22:17:21.705Z,8.78
2023-05-07T22:19:53.180Z,8.76
2023-05-07T22:22:24.986Z,8.71
2023-05-07T22:24:56.462Z,8.73
2023-05-07T22:27:28.131Z,8.66
2023-05-07T22:29:59.617Z,8.62
2023-05-07T22:32:31.138Z,8.56
2023-05-07T22:35:02.637Z,8.57
2023-05-07T22:37:34.138Z,8.51
2023-05-07T22:40:05.650Z,8.50
2023-05-07T22:42:37.164Z,8.49
2023-05-07T22:45:09.010Z,8.46
2023-05-07T22:47:40.521Z,8.46
2023-05-07T22:50:12.485Z,8.42
2023-05-07T22:52:44.153Z,8.38
2023-05-07T22:55:15.943Z,8.34
2023-05-07T22:57:47.390Z,8.32
2023-05-07T23:00:18.911Z,8.30
2023-05-07T23:02:50.459Z,8.32
2023-05-07T23:05:22.522Z,8.30
2023-05-07T23:07:53.995Z,8.28
2023-05-07T23:10:25.845Z,8.27
2023-05-07T23:12:57.328Z,8.22
2023-05-07T23:15:29.028Z,8.20
2023-05-07T23:18:01.031Z,8.20
2023-05-07T23:20:32.548Z,8.15
2023-05-07T23:23:04.221Z,8.18
2023-05-07T23:25:35.723Z,8.16
2023-05-07T23:28:07.512Z,8.07
2023-05-07T23:30:39.003Z,8.11
2023-05-07T23:33:10.825Z,8.11
2023-05-07T23:35:42.323Z,8.04
2023-05-07T23:38:14.173Z,8.04
2023-05-07T23:40:45.621Z,8.01
2023-05-07T23:43:17.422Z,7.99
2023-05-07T23:45:49.261Z,7.98
2023-05-07T23:48:21.042Z,7.89
2023-05-07T23:50:52.550Z,7.92
2023-05-07T23:53:24.002Z,7.88
2023-05-07T23:55:56.019Z,7.87
2023-05-07T23:58:27.486Z,7.86
